sensor_id;sensor_type;location;lat;lon;timestamp;P1;durP1;ratioP1;P2;durP2;ratioP2
12812;SDS011;6471;50.932;6.934;2023-09-19T00:00:03;1.80;;;1.37;;
12812;SDS011;6471;50.932;6.934;2023-09-19T00:02:31;1.87;;;1.30;;
12812;SDS011;6471;50.932;6.934;2023-09-19T00:04:58;1.93;;;1.40;;
12812;SDS011;6471;50.932;6.934;2023-09-19T00:07:24;2.27;;;1.20;;
12812;SDS011;6471;50.932;6.934;2023-09-19T00:09:50;2.63;;;1.20;;
12812;SDS011;6471;50.932;6.934;2023-09-19T00:12:16;1.83;;;1.27;;
12812;SDS011;6471;50.932;6.934;2023-09-19T00:14:42;2.97;;;1.17;;
12812;SDS011;6471;50.932;6.934;2023-09-19T00:17:08;1.77;;;1.30;;
12812;SDS011;6471;50.932;6.934;2023-09-19T00:19:37;1.50;;;1.20;;
12812;SDS011;6471;50.932;6.934;2023-09-19T00:22:03;1.70;;;1.33;;
12812;SDS011;6471;50.932;6.934;2023-09-19T00:24:30;3.20;;;1.33;;
12812;SDS011;6471;50.932;6.934;2023-09-19T00:26:56;1.50;;;1.20;;
12812;SDS011;6471;50.932;6.934;2023-09-19T00:29:24;3.40;;;1.40;;
12812;SDS011;6471;50.932;6.934;2023-09-19T00:31:54;1.77;;;1.40;;
12812;SDS011;6471;50.932;6.934;2023-09-19T00:34:22;3.07;;;1.40;;
12812;SDS011;6471;50.932;6.934;2023-09-19T00:36:48;2.23;;;1.30;;
12812;SDS011;6471;50.932;6.934;2023-09-19T00:39:14;2.03;;;1.30;;
12812;SDS011;6471;50.932;6.934;2023-09-19T00:41:40;2.07;;;1.17;;
12812;SDS011;6471;50.932;6.934;2023-09-19T00:44:09;2.73;;;1.30;;
12812;SDS011;6471;50.932;6.934;2023-09-19T00:46:35;3.10;;;1.40;;
12812;SDS011;6471;50.932;6.934;2023-09-19T00:49:02;3.10;;;1.60;;
12812;SDS011;6471;50.932;6.934;2023-09-19T00:51:28;2.33;;;1.50;;
12812;SDS011;6471;50.932;6.934;2023-09-19T00:53:54;2.77;;;1.13;;
12812;SDS011;6471;50.932;6.934;2023-09-19T00:56:21;1.77;;;1.00;;
12812;SDS011;6471;50.932;6.934;2023-09-19T00:58:48;1.87;;;1.23;;
12812;SDS011;6471;50.932;6.934;2023-09-19T01:01:14;1.90;;;1.20;;
12812;SDS011;6471;50.932;6.934;2023-09-19T01:03:41;2.30;;;1.37;;
12812;SDS011;6471;50.932;6.934;2023-09-19T01:06:07;1.77;;;1.30;;
12812;SDS011;6471;50.932;6.934;2023-09-19T01:08:34;1.53;;;1.10;;
12812;SDS011;6471;50.932;6.934;2023-09-19T01:13:56;4.53;;;1.50;;
12812;SDS011;6471;50.932;6.934;2023-09-19T01:24:21;3.43;;;1.50;;
12812;SDS011;6471;50.932;6.934;2023-09-19T01:29:36;2.20;;;1.30;;
12812;SDS011;6471;50.932;6.934;2023-09-19T01:32:04;2.50;;;1.30;;
12812;SDS011;6471;50.932;6.934;2023-09-19T01:37:29;2.53;;;1.37;;
12812;SDS011;6471;50.932;6.934;2023-09-19T01:39:57;3.10;;;1.47;;
12812;SDS011;6471;50.932;6.934;2023-09-19T01:42:49;4.60;;;1.30;;
12812;SDS011;6471;50.932;6.934;2023-09-19T01:45:32;3.17;;;1.60;;
12812;SDS011;6471;50.932;6.934;2023-09-19T01:48:05;2.27;;;1.30;;
12812;SDS011;6471;50.932;6.934;2023-09-19T01:50:38;2.73;;;1.50;;
12812;SDS011;6471;50.932;6.934;2023-09-19T01:53:14;3.40;;;1.50;;
12812;SDS011;6471;50.932;6.934;2023-09-19T01:55:42;1.97;;;1.40;;
12812;SDS011;6471;50.932;6.934;2023-09-19T01:58:24;3.17;;;1.63;;
12812;SDS011;6471;50.932;6.934;2023-09-19T02:00:53;5.33;;;1.90;;
12812;SDS011;6471;50.932;6.934;2023-09-19T02:03:21;3.77;;;1.70;;
12812;SDS011;6471;50.932;6.934;2023-09-19T02:05:48;3.57;;;1.77;;
12812;SDS011;6471;50.932;6.934;2023-09-19T02:08:18;5.30;;;1.90;;
12812;SDS011;6471;50.932;6.934;2023-09-19T02:10:45;2.70;;;1.57;;
12812;SDS011;6471;50.932;6.934;2023-09-19T02:13:15;2.67;;;1.30;;
12812;SDS011;6471;50.932;6.934;2023-09-19T02:15:42;3.77;;;1.70;;
12812;SDS011;6471;50.932;6.934;2023-09-19T02:18:11;2.17;;;1.50;;
12812;SDS011;6471;50.932;6.934;2023-09-19T02:20:38;3.00;;;1.50;;
12812;SDS011;6471;50.932;6.934;2023-09-19T02:23:04;2.63;;;1.50;;
12812;SDS011;6471;50.932;6.934;2023-09-19T02:25:30;3.70;;;1.60;;
12812;SDS011;6471;50.932;6.934;2023-09-19T02:27:57;3.83;;;1.50;;
12812;SDS011;6471;50.932;6.934;2023-09-19T02:30:28;3.73;;;1.63;;
12812;SDS011;6471;50.932;6.934;2023-09-19T02:32:54;5.40;;;1.60;;
12812;SDS011;6471;50.932;6.934;2023-09-19T02:35:20;4.43;;;1.63;;
12812;SDS011;6471;50.932;6.934;2023-09-19T02:37:46;2.67;;;1.80;;
12812;SDS011;6471;50.932;6.934;2023-09-19T02:40:13;2.80;;;1.50;;
12812;SDS011;6471;50.932;6.934;2023-09-19T02:42:48;3.10;;;1.57;;
12812;SDS011;6471;50.932;6.934;2023-09-19T02:45:18;3.50;;;1.67;;
12812;SDS011;6471;50.932;6.934;2023-09-19T02:47:44;3.70;;;1.80;;
12812;SDS011;6471;50.932;6.934;2023-09-19T02:50:11;2.67;;;1.57;;
12812;SDS011;6471;50.932;6.934;2023-09-19T02:52:37;4.00;;;1.70;;
12812;SDS011;6471;50.932;6.934;2023-09-19T02:55:04;3.50;;;1.50;;
12812;SDS011;6471;50.932;6.934;2023-09-19T02:57:34;3.77;;;1.70;;
12812;SDS011;6471;50.932;6.934;2023-09-19T03:00:09;2.37;;;1.40;;
12812;SDS011;6471;50.932;6.934;2023-09-19T03:02:36;3.13;;;1.50;;
12812;SDS011;6471;50.932;6.934;2023-09-19T03:05:03;3.30;;;1.40;;
12812;SDS011;6471;50.932;6.934;2023-09-19T03:07:32;2.70;;;1.40;;
12812;SDS011;6471;50.932;6.934;2023-09-19T03:09:58;3.10;;;1.60;;
12812;SDS011;6471;50.932;6.934;2023-09-19T03:12:25;2.43;;;1.43;;
12812;SDS011;6471;50.932;6.934;2023-09-19T03:14:51;2.37;;;1.23;;
12812;SDS011;6471;50.932;6.934;2023-09-19T03:17:17;4.60;;;1.73;;
12812;SDS011;6471;50.932;6.934;2023-09-19T03:19:44;3.27;;;1.60;;
12812;SDS011;6471;50.932;6.934;2023-09-19T03:22:12;3.10;;;1.60;;
12812;SDS011;6471;50.932;6.934;2023-09-19T03:24:38;3.03;;;1.53;;
12812;SDS011;6471;50.932;6.934;2023-09-19T03:27:04;3.83;;;1.77;;
12812;SDS011;6471;50.932;6.934;2023-09-19T03:29:31;3.97;;;1.63;;
12812;SDS011;6471;50.932;6.934;2023-09-19T03:31:57;3.40;;;1.60;;
12812;SDS011;6471;50.932;6.934;2023-09-19T03:34:23;2.53;;;1.30;;
12812;SDS011;6471;50.932;6.934;2023-09-19T03:36:49;4.97;;;2.00;;
12812;SDS011;6471;50.932;6.934;2023-09-19T03:39:15;2.73;;;1.50;;
12812;SDS011;6471;50.932;6.934;2023-09-19T03:41:41;3.40;;;1.60;;
12812;SDS011;6471;50.932;6.934;2023-09-19T03:44:18;2.87;;;1.40;;
12812;SDS011;6471;50.932;6.934;2023-09-19T03:46:44;2.17;;;1.40;;
12812;SDS011;6471;50.932;6.934;2023-09-19T03:49:10;2.90;;;1.30;;
12812;SDS011;6471;50.932;6.934;2023-09-19T03:51:42;2.73;;;1.50;;
12812;SDS011;6471;50.932;6.934;2023-09-19T03:54:18;1.27;;;1.17;;
12812;SDS011;6471;50.932;6.934;2023-09-19T03:56:44;2.53;;;1.60;;
12812;SDS011;6471;50.932;6.934;2023-09-19T03:59:10;2.90;;;1.40;;
12812;SDS011;6471;50.932;6.934;2023-09-19T04:01:37;3.10;;;1.47;;
12812;SDS011;6471;50.932;6.934;2023-09-19T04:04:04;2.47;;;1.40;;
12812;SDS011;6471;50.932;6.934;2023-09-19T04:06:36;2.87;;;1.30;;
12812;SDS011;6471;50.932;6.934;2023-09-19T04:09:02;2.30;;;1.40;;
12812;SDS011;6471;50.932;6.934;2023-09-19T04:11:32;2.27;;;1.30;;
12812;SDS011;6471;50.932;6.934;2023-09-19T04:13:58;2.17;;;1.30;;
12812;SDS011;6471;50.932;6.934;2023-09-19T04:16:24;1.97;;;1.30;;
12812;SDS011;6471;50.932;6.934;2023-09-19T04:18:51;3.50;;;1.33;;
12812;SDS011;6471;50.932;6.934;2023-09-19T04:21:17;2.57;;;1.30;;
12812;SDS011;6471;50.932;6.934;2023-09-19T04:23:44;2.27;;;1.30;;
12812;SDS011;6471;50.932;6.934;2023-09-19T04:26:10;1.57;;;1.20;;
12812;SDS011;6471;50.932;6.934;2023-09-19T04:28:37;2.50;;;1.40;;
12812;SDS011;6471;50.932;6.934;2023-09-19T04:31:03;2.50;;;1.20;;
12812;SDS011;6471;50.932;6.934;2023-09-19T04:33:30;1.67;;;1.03;;
12812;SDS011;6471;50.932;6.934;2023-09-19T04:35:56;3.93;;;1.50;;
12812;SDS011;6471;50.932;6.934;2023-09-19T04:38:22;2.07;;;1.37;;
12812;SDS011;6471;50.932;6.934;2023-09-19T04:40:49;2.93;;;1.33;;
12812;SDS011;6471;50.932;6.934;2023-09-19T04:43:15;2.90;;;1.37;;
12812;SDS011;6471;50.932;6.934;2023-09-19T04:45:42;2.93;;;1.30;;
12812;SDS011;6471;50.932;6.934;2023-09-19T04:48:08;4.17;;;1.47;;
12812;SDS011;6471;50.932;6.934;2023-09-19T04:50:34;2.27;;;1.33;;
12812;SDS011;6471;50.932;6.934;2023-09-19T04:53:02;2.83;;;1.20;;
12812;SDS011;6471;50.932;6.934;2023-09-19T04:55:28;2.13;;;1.30;;
12812;SDS011;6471;50.932;6.934;2023-09-19T04:57:55;1.80;;;1.10;;
12812;SDS011;6471;50.932;6.934;2023-09-19T05:00:21;4.17;;;1.60;;
12812;SDS011;6471;50.932;6.934;2023-09-19T05:02:54;2.47;;;1.30;;
12812;SDS011;6471;50.932;6.934;2023-09-19T05:05:21;2.53;;;1.20;;
12812;SDS011;6471;50.932;6.934;2023-09-19T05:07:48;2.03;;;1.33;;
12812;SDS011;6471;50.932;6.934;2023-09-19T05:10:14;3.30;;;1.40;;
12812;SDS011;6471;50.932;6.934;2023-09-19T05:12:44;1.90;;;1.50;;
12812;SDS011;6471;50.932;6.934;2023-09-19T05:15:12;2.70;;;1.40;;
12812;SDS011;6471;50.932;6.934;2023-09-19T05:17:40;2.10;;;1.40;;
12812;SDS011;6471;50.932;6.934;2023-09-19T05:20:06;4.30;;;1.50;;
12812;SDS011;6471;50.932;6.934;2023-09-19T05:22:43;3.53;;;1.80;;
12812;SDS011;6471;50.932;6.934;2023-09-19T05:25:11;4.97;;;1.70;;
12812;SDS011;6471;50.932;6.934;2023-09-19T05:27:41;5.20;;;1.80;;
12812;SDS011;6471;50.932;6.934;2023-09-19T05:30:07;3.87;;;1.87;;
12812;SDS011;6471;50.932;6.934;2023-09-19T05:32:34;5.00;;;1.77;;
12812;SDS011;6471;50.932;6.934;2023-09-19T05:35:00;7.20;;;2.40;;
12812;SDS011;6471;50.932;6.934;2023-09-19T05:37:26;5.20;;;2.10;;
12812;SDS011;6471;50.932;6.934;2023-09-19T05:39:52;4.13;;;2.00;;
12812;SDS011;6471;50.932;6.934;2023-09-19T05:42:18;5.43;;;2.07;;
12812;SDS011;6471;50.932;6.934;2023-09-19T05:44:45;5.17;;;2.00;;
12812;SDS011;6471;50.932;6.934;2023-09-19T05:47:11;3.40;;;1.77;;
12812;SDS011;6471;50.932;6.934;2023-09-19T05:49:38;5.07;;;2.10;;
12812;SDS011;6471;50.932;6.934;2023-09-19T05:52:07;7.07;;;2.30;;
12812;SDS011;6471;50.932;6.934;2023-09-19T05:54:34;4.97;;;2.17;;
12812;SDS011;6471;50.932;6.934;2023-09-19T05:57:00;5.40;;;2.00;;
12812;SDS011;6471;50.932;6.934;2023-09-19T05:59:27;4.80;;;1.77;;
12812;SDS011;6471;50.932;6.934;2023-09-19T06:01:55;4.60;;;2.00;;
12812;SDS011;6471;50.932;6.934;2023-09-19T06:04:21;3.30;;;1.80;;
12812;SDS011;6471;50.932;6.934;2023-09-19T06:06:48;5.17;;;2.13;;
12812;SDS011;6471;50.932;6.934;2023-09-19T06:09:14;2.57;;;1.47;;
12812;SDS011;6471;50.932;6.934;2023-09-19T06:11:43;5.17;;;1.70;;
12812;SDS011;6471;50.932;6.934;2023-09-19T06:14:09;3.03;;;1.57;;
12812;SDS011;6471;50.932;6.934;2023-09-19T06:16:36;3.07;;;1.60;;
12812;SDS011;6471;50.932;6.934;2023-09-19T06:19:06;2.73;;;1.47;;
12812;SDS011;6471;50.932;6.934;2023-09-19T06:21:35;4.63;;;1.60;;
12812;SDS011;6471;50.932;6.934;2023-09-19T06:24:01;3.20;;;1.70;;
12812;SDS011;6471;50.932;6.934;2023-09-19T06:26:28;2.83;;;1.40;;
12812;SDS011;6471;50.932;6.934;2023-09-19T06:28:55;2.13;;;1.43;;
12812;SDS011;6471;50.932;6.934;2023-09-19T06:31:22;1.80;;;1.33;;
12812;SDS011;6471;50.932;6.934;2023-09-19T06:33:51;3.63;;;1.50;;
12812;SDS011;6471;50.932;6.934;2023-09-19T06:36:17;2.07;;;1.40;;
12812;SDS011;6471;50.932;6.934;2023-09-19T06:38:44;3.13;;;1.50;;
12812;SDS011;6471;50.932;6.934;2023-09-19T06:41:10;3.97;;;1.97;;
12812;SDS011;6471;50.932;6.934;2023-09-19T06:43:37;4.33;;;2.00;;
12812;SDS011;6471;50.932;6.934;2023-09-19T06:46:04;4.47;;;1.80;;
12812;SDS011;6471;50.932;6.934;2023-09-19T06:48:32;2.37;;;1.40;;
12812;SDS011;6471;50.932;6.934;2023-09-19T06:50:58;3.90;;;2.00;;
12812;SDS011;6471;50.932;6.934;2023-09-19T06:53:30;2.77;;;1.63;;
12812;SDS011;6471;50.932;6.934;2023-09-19T06:55:57;2.80;;;1.80;;
12812;SDS011;6471;50.932;6.934;2023-09-19T06:58:23;3.43;;;1.90;;
12812;SDS011;6471;50.932;6.934;2023-09-19T07:00:49;3.40;;;1.70;;
12812;SDS011;6471;50.932;6.934;2023-09-19T07:03:15;3.23;;;2.00;;
12812;SDS011;6471;50.932;6.934;2023-09-19T07:05:43;2.37;;;1.60;;
12812;SDS011;6471;50.932;6.934;2023-09-19T07:08:10;4.73;;;2.20;;
12812;SDS011;6471;50.932;6.934;2023-09-19T07:10:37;4.03;;;2.00;;
12812;SDS011;6471;50.932;6.934;2023-09-19T07:13:05;3.77;;;1.80;;
12812;SDS011;6471;50.932;6.934;2023-09-19T07:15:34;3.17;;;1.70;;
12812;SDS011;6471;50.932;6.934;2023-09-19T07:18:03;2.70;;;1.70;;
12812;SDS011;6471;50.932;6.934;2023-09-19T07:20:30;3.13;;;1.63;;
12812;SDS011;6471;50.932;6.934;2023-09-19T07:22:57;2.40;;;1.53;;
12812;SDS011;6471;50.932;6.934;2023-09-19T07:25:29;3.00;;;1.60;;
12812;SDS011;6471;50.932;6.934;2023-09-19T07:27:56;3.30;;;1.47;;
12812;SDS011;6471;50.932;6.934;2023-09-19T07:30:24;2.73;;;1.63;;
12812;SDS011;6471;50.932;6.934;2023-09-19T07:32:51;2.97;;;1.73;;
12812;SDS011;6471;50.932;6.934;2023-09-19T07:35:17;2.97;;;1.57;;
12812;SDS011;6471;50.932;6.934;2023-09-19T07:37:45;3.70;;;1.50;;
12812;SDS011;6471;50.932;6.934;2023-09-19T07:40:14;2.37;;;1.33;;
12812;SDS011;6471;50.932;6.934;2023-09-19T07:42:41;3.50;;;1.70;;
12812;SDS011;6471;50.932;6.934;2023-09-19T07:45:09;2.17;;;1.40;;
12812;SDS011;6471;50.932;6.934;2023-09-19T07:47:39;3.20;;;1.57;;
12812;SDS011;6471;50.932;6.934;2023-09-19T07:50:05;2.57;;;1.40;;
12812;SDS011;6471;50.932;6.934;2023-09-19T07:52:32;2.13;;;1.43;;
12812;SDS011;6471;50.932;6.934;2023-09-19T07:54:58;1.63;;;1.20;;
12812;SDS011;6471;50.932;6.934;2023-09-19T07:57:26;1.93;;;1.20;;
12812;SDS011;6471;50.932;6.934;2023-09-19T07:59:54;3.23;;;1.67;;
12812;SDS011;6471;50.932;6.934;2023-09-19T08:02:20;3.33;;;1.83;;
12812;SDS011;6471;50.932;6.934;2023-09-19T08:04:47;3.33;;;1.67;;
12812;SDS011;6471;50.932;6.934;2023-09-19T08:07:15;2.33;;;1.40;;
12812;SDS011;6471;50.932;6.934;2023-09-19T08:09:41;2.17;;;1.43;;
12812;SDS011;6471;50.932;6.934;2023-09-19T08:12:17;1.60;;;1.20;;
12812;SDS011;6471;50.932;6.934;2023-09-19T08:14:49;2.90;;;1.73;;
12812;SDS011;6471;50.932;6.934;2023-09-19T08:17:15;3.57;;;1.80;;
12812;SDS011;6471;50.932;6.934;2023-09-19T08:19:41;4.47;;;1.77;;
12812;SDS011;6471;50.932;6.934;2023-09-19T08:22:10;3.00;;;1.60;;
12812;SDS011;6471;50.932;6.934;2023-09-19T08:24:36;2.20;;;1.43;;
12812;SDS011;6471;50.932;6.934;2023-09-19T08:27:03;2.67;;;1.43;;
12812;SDS011;6471;50.932;6.934;2023-09-19T08:29:31;2.17;;;1.50;;
12812;SDS011;6471;50.932;6.934;2023-09-19T08:31:57;2.77;;;1.40;;
12812;SDS011;6471;50.932;6.934;2023-09-19T08:34:24;2.67;;;1.60;;
12812;SDS011;6471;50.932;6.934;2023-09-19T08:36:50;2.93;;;1.80;;
12812;SDS011;6471;50.932;6.934;2023-09-19T08:39:18;3.13;;;1.70;;
12812;SDS011;6471;50.932;6.934;2023-09-19T08:41:44;4.40;;;1.63;;
12812;SDS011;6471;50.932;6.934;2023-09-19T08:44:10;3.87;;;1.83;;
12812;SDS011;6471;50.932;6.934;2023-09-19T08:46:36;3.57;;;1.70;;
12812;SDS011;6471;50.932;6.934;2023-09-19T08:49:04;4.00;;;1.40;;
12812;SDS011;6471;50.932;6.934;2023-09-19T08:56:24;3.50;;;1.53;;
12812;SDS011;6471;50.932;6.934;2023-09-19T08:58:55;3.97;;;1.70;;
12812;SDS011;6471;50.932;6.934;2023-09-19T09:01:23;4.10;;;1.50;;
12812;SDS011;6471;50.932;6.934;2023-09-19T09:03:52;2.83;;;1.60;;
12812;SDS011;6471;50.932;6.934;2023-09-19T09:06:19;2.77;;;1.67;;
12812;SDS011;6471;50.932;6.934;2023-09-19T09:08:45;2.50;;;1.47;;
12812;SDS011;6471;50.932;6.934;2023-09-19T09:11:12;3.50;;;1.60;;
12812;SDS011;6471;50.932;6.934;2023-09-19T09:13:38;3.83;;;1.70;;
12812;SDS011;6471;50.932;6.934;2023-09-19T09:16:06;2.60;;;1.60;;
12812;SDS011;6471;50.932;6.934;2023-09-19T09:18:32;4.33;;;1.77;;
12812;SDS011;6471;50.932;6.934;2023-09-19T09:20:59;2.83;;;1.50;;
12812;SDS011;6471;50.932;6.934;2023-09-19T09:23:29;3.37;;;1.57;;
12812;SDS011;6471;50.932;6.934;2023-09-19T09:25:57;2.33;;;1.23;;
12812;SDS011;6471;50.932;6.934;2023-09-19T09:28:34;2.70;;;1.60;;
12812;SDS011;6471;50.932;6.934;2023-09-19T09:31:04;4.03;;;1.60;;
12812;SDS011;6471;50.932;6.934;2023-09-19T09:33:34;4.23;;;1.80;;
12812;SDS011;6471;50.932;6.934;2023-09-19T09:36:01;3.20;;;1.50;;
12812;SDS011;6471;50.932;6.934;2023-09-19T09:41:10;3.13;;;1.70;;
12812;SDS011;6471;50.932;6.934;2023-09-19T09:43:52;2.67;;;1.60;;
12812;SDS011;6471;50.932;6.934;2023-09-19T09:46:19;3.30;;;1.30;;
12812;SDS011;6471;50.932;6.934;2023-09-19T09:51:42;1.90;;;1.40;;
12812;SDS011;6471;50.932;6.934;2023-09-19T09:54:12;3.03;;;1.43;;
12812;SDS011;6471;50.932;6.934;2023-09-19T09:56:55;3.17;;;1.60;;
12812;SDS011;6471;50.932;6.934;2023-09-19T10:05:03;3.47;;;1.80;;
12812;SDS011;6471;50.932;6.934;2023-09-19T10:07:46;2.80;;;1.50;;
12812;SDS011;6471;50.932;6.934;2023-09-19T10:10:35;2.17;;;1.30;;
12812;SDS011;6471;50.932;6.934;2023-09-19T10:13:18;1.50;;;1.13;;
12812;SDS011;6471;50.932;6.934;2023-09-19T10:15:48;3.37;;;1.67;;
12812;SDS011;6471;50.932;6.934;2023-09-19T10:18:20;2.27;;;1.40;;
12812;SDS011;6471;50.932;6.934;2023-09-19T10:20:47;2.97;;;1.47;;
12812;SDS011;6471;50.932;6.934;2023-09-19T10:23:20;2.90;;;1.63;;
12812;SDS011;6471;50.932;6.934;2023-09-19T10:25:51;2.10;;;1.20;;
12812;SDS011;6471;50.932;6.934;2023-09-19T10:28:18;1.83;;;1.40;;
12812;SDS011;6471;50.932;6.934;2023-09-19T10:30:48;3.13;;;1.70;;
12812;SDS011;6471;50.932;6.934;2023-09-19T10:33:21;2.57;;;1.57;;
12812;SDS011;6471;50.932;6.934;2023-09-19T10:35:50;2.90;;;1.40;;
12812;SDS011;6471;50.932;6.934;2023-09-19T10:38:18;1.90;;;1.30;;
12812;SDS011;6471;50.932;6.934;2023-09-19T10:40:48;3.10;;;1.60;;
12812;SDS011;6471;50.932;6.934;2023-09-19T10:43:15;3.53;;;1.67;;
12812;SDS011;6471;50.932;6.934;2023-09-19T10:45:46;3.07;;;1.83;;
12812;SDS011;6471;50.932;6.934;2023-09-19T10:48:14;2.03;;;1.60;;
12812;SDS011;6471;50.932;6.934;2023-09-19T10:50:45;2.83;;;1.47;;
12812;SDS011;6471;50.932;6.934;2023-09-19T10:53:14;1.33;;;1.23;;
12812;SDS011;6471;50.932;6.934;2023-09-19T10:55:40;2.37;;;1.40;;
12812;SDS011;6471;50.932;6.934;2023-09-19T10:58:08;2.07;;;1.37;;
12812;SDS011;6471;50.932;6.934;2023-09-19T11:01:13;4.20;;;1.60;;
12812;SDS011;6471;50.932;6.934;2023-09-19T11:03:37;2.03;;;1.50;;
12812;SDS011;6471;50.932;6.934;2023-09-19T11:14:16;2.33;;;1.57;;
12812;SDS011;6471;50.932;6.934;2023-09-19T11:30:30;1.97;;;1.40;;
12812;SDS011;6471;50.932;6.934;2023-09-19T11:36:02;3.63;;;1.93;;
12812;SDS011;6471;50.932;6.934;2023-09-19T11:39:14;2.40;;;1.60;;
12812;SDS011;6471;50.932;6.934;2023-09-19T11:46:16;3.07;;;1.73;;
12812;SDS011;6471;50.932;6.934;2023-09-19T11:48:47;2.93;;;1.93;;
12812;SDS011;6471;50.932;6.934;2023-09-19T11:51:18;3.37;;;1.70;;
12812;SDS011;6471;50.932;6.934;2023-09-19T11:53:45;3.93;;;1.80;;
12812;SDS011;6471;50.932;6.934;2023-09-19T11:56:18;2.73;;;1.70;;
12812;SDS011;6471;50.932;6.934;2023-09-19T11:58:45;2.27;;;1.50;;
12812;SDS011;6471;50.932;6.934;2023-09-19T12:01:14;1.87;;;1.50;;
12812;SDS011;6471;50.932;6.934;2023-09-19T12:03:46;2.73;;;1.70;;
12812;SDS011;6471;50.932;6.934;2023-09-19T12:06:13;2.13;;;1.50;;
12812;SDS011;6471;50.932;6.934;2023-09-19T12:08:40;2.87;;;1.53;;
12812;SDS011;6471;50.932;6.934;2023-09-19T12:11:11;3.00;;;1.80;;
12812;SDS011;6471;50.932;6.934;2023-09-19T12:13:41;3.07;;;1.70;;
12812;SDS011;6471;50.932;6.934;2023-09-19T12:16:17;2.83;;;1.67;;
12812;SDS011;6471;50.932;6.934;2023-09-19T12:18:47;3.50;;;1.77;;
12812;SDS011;6471;50.932;6.934;2023-09-19T12:21:28;3.63;;;1.60;;
12812;SDS011;6471;50.932;6.934;2023-09-19T12:23:57;3.80;;;1.63;;
12812;SDS011;6471;50.932;6.934;2023-09-19T12:26:23;4.20;;;1.90;;
12812;SDS011;6471;50.932;6.934;2023-09-19T12:28:49;2.70;;;1.57;;
12812;SDS011;6471;50.932;6.934;2023-09-19T12:31:17;2.23;;;1.50;;
12812;SDS011;6471;50.932;6.934;2023-09-19T12:33:44;3.03;;;1.60;;
12812;SDS011;6471;50.932;6.934;2023-09-19T12:36:20;2.97;;;1.47;;
12812;SDS011;6471;50.932;6.934;2023-09-19T12:38:54;2.93;;;1.70;;
12812;SDS011;6471;50.932;6.934;2023-09-19T12:41:20;3.13;;;1.43;;
12812;SDS011;6471;50.932;6.934;2023-09-19T12:43:47;3.60;;;1.60;;
12812;SDS011;6471;50.932;6.934;2023-09-19T12:46:13;4.17;;;1.67;;
12812;SDS011;6471;50.932;6.934;2023-09-19T12:48:40;3.63;;;1.90;;
12812;SDS011;6471;50.932;6.934;2023-09-19T12:51:09;2.90;;;1.90;;
12812;SDS011;6471;50.932;6.934;2023-09-19T12:53:38;3.10;;;1.63;;
12812;SDS011;6471;50.932;6.934;2023-09-19T12:56:12;3.37;;;1.80;;
12812;SDS011;6471;50.932;6.934;2023-09-19T13:01:15;2.43;;;1.40;;
12812;SDS011;6471;50.932;6.934;2023-09-19T13:03:41;2.57;;;1.43;;
12812;SDS011;6471;50.932;6.934;2023-09-19T13:06:07;2.43;;;1.40;;
12812;SDS011;6471;50.932;6.934;2023-09-19T13:08:35;3.20;;;1.40;;
12812;SDS011;6471;50.932;6.934;2023-09-19T13:13:37;4.10;;;1.50;;
12812;SDS011;6471;50.932;6.934;2023-09-19T13:16:04;3.17;;;1.40;;
12812;SDS011;6471;50.932;6.934;2023-09-19T13:18:50;3.67;;;1.27;;
12812;SDS011;6471;50.932;6.934;2023-09-19T13:21:26;2.13;;;1.40;;
12812;SDS011;6471;50.932;6.934;2023-09-19T13:23:53;2.83;;;1.33;;
12812;SDS011;6471;50.932;6.934;2023-09-19T13:26:24;3.03;;;1.50;;
12812;SDS011;6471;50.932;6.934;2023-09-19T13:28:50;2.57;;;1.27;;
12812;SDS011;6471;50.932;6.934;2023-09-19T13:31:17;1.83;;;1.10;;
12812;SDS011;6471;50.932;6.934;2023-09-19T13:33:47;2.47;;;1.40;;
12812;SDS011;6471;50.932;6.934;2023-09-19T13:36:13;2.17;;;1.30;;
12812;SDS011;6471;50.932;6.934;2023-09-19T13:38:40;3.80;;;1.40;;
12812;SDS011;6471;50.932;6.934;2023-09-19T13:41:10;2.90;;;1.33;;
12812;SDS011;6471;50.932;6.934;2023-09-19T13:43:37;2.23;;;1.20;;
12812;SDS011;6471;50.932;6.934;2023-09-19T13:46:04;1.67;;;1.10;;
12812;SDS011;6471;50.932;6.934;2023-09-19T13:48:32;1.93;;;1.30;;
12812;SDS011;6471;50.932;6.934;2023-09-19T13:51:00;3.33;;;1.37;;
12812;SDS011;6471;50.932;6.934;2023-09-19T13:53:26;2.30;;;1.20;;
12812;SDS011;6471;50.932;6.934;2023-09-19T13:55:53;2.23;;;1.30;;
12812;SDS011;6471;50.932;6.934;2023-09-19T13:58:19;2.43;;;1.50;;
12812;SDS011;6471;50.932;6.934;2023-09-19T14:00:46;3.73;;;1.30;;
12812;SDS011;6471;50.932;6.934;2023-09-19T14:03:12;1.77;;;1.17;;
12812;SDS011;6471;50.932;6.934;2023-09-19T14:05:39;2.13;;;1.20;;
12812;SDS011;6471;50.932;6.934;2023-09-19T14:08:05;1.30;;;0.90;;
12812;SDS011;6471;50.932;6.934;2023-09-19T14:10:31;2.37;;;1.10;;
12812;SDS011;6471;50.932;6.934;2023-09-19T14:12:58;1.40;;;1.00;;
12812;SDS011;6471;50.932;6.934;2023-09-19T14:15:24;1.83;;;1.27;;
12812;SDS011;6471;50.932;6.934;2023-09-19T14:17:57;2.13;;;1.20;;
12812;SDS011;6471;50.932;6.934;2023-09-19T14:20:24;1.53;;;1.10;;
12812;SDS011;6471;50.932;6.934;2023-09-19T14:22:51;1.70;;;1.13;;
12812;SDS011;6471;50.932;6.934;2023-09-19T14:25:17;2.80;;;1.10;;
12812;SDS011;6471;50.932;6.934;2023-09-19T14:27:43;2.00;;;1.23;;
12812;SDS011;6471;50.932;6.934;2023-09-19T14:30:10;1.77;;;1.07;;
12812;SDS011;6471;50.932;6.934;2023-09-19T14:32:36;3.17;;;1.20;;
12812;SDS011;6471;50.932;6.934;2023-09-19T14:35:03;1.90;;;1.20;;
12812;SDS011;6471;50.932;6.934;2023-09-19T14:37:29;2.17;;;1.03;;
12812;SDS011;6471;50.932;6.934;2023-09-19T14:39:56;1.73;;;1.10;;
12812;SDS011;6471;50.932;6.934;2023-09-19T14:42:25;1.40;;;1.03;;
12812;SDS011;6471;50.932;6.934;2023-09-19T14:44:54;2.40;;;1.20;;
12812;SDS011;6471;50.932;6.934;2023-09-19T14:47:20;1.57;;;1.13;;
12812;SDS011;6471;50.932;6.934;2023-09-19T14:49:47;2.13;;;1.10;;
12812;SDS011;6471;50.932;6.934;2023-09-19T14:52:13;1.80;;;1.10;;
12812;SDS011;6471;50.932;6.934;2023-09-19T14:54:40;2.13;;;1.20;;
12812;SDS011;6471;50.932;6.934;2023-09-19T14:57:06;2.00;;;1.30;;
12812;SDS011;6471;50.932;6.934;2023-09-19T14:59:34;2.40;;;1.20;;
12812;SDS011;6471;50.932;6.934;2023-09-19T15:02:06;2.63;;;1.27;;
12812;SDS011;6471;50.932;6.934;2023-09-19T15:04:32;2.77;;;1.27;;
12812;SDS011;6471;50.932;6.934;2023-09-19T15:06:59;2.70;;;1.27;;
12812;SDS011;6471;50.932;6.934;2023-09-19T15:09:25;1.97;;;1.23;;
12812;SDS011;6471;50.932;6.934;2023-09-19T15:11:52;1.07;;;0.80;;
12812;SDS011;6471;50.932;6.934;2023-09-19T15:14:18;2.80;;;1.30;;
12812;SDS011;6471;50.932;6.934;2023-09-19T15:16:44;2.43;;;1.10;;
12812;SDS011;6471;50.932;6.934;2023-09-19T15:19:10;1.77;;;1.20;;
12812;SDS011;6471;50.932;6.934;2023-09-19T15:21:36;1.37;;;1.03;;
12812;SDS011;6471;50.932;6.934;2023-09-19T15:24:03;2.20;;;0.97;;
12812;SDS011;6471;50.932;6.934;2023-09-19T15:26:30;1.53;;;1.00;;
12812;SDS011;6471;50.932;6.934;2023-09-19T15:28:56;1.73;;;1.00;;
12812;SDS011;6471;50.932;6.934;2023-09-19T15:31:22;1.63;;;1.10;;
12812;SDS011;6471;50.932;6.934;2023-09-19T15:33:48;1.73;;;1.20;;
12812;SDS011;6471;50.932;6.934;2023-09-19T15:36:15;2.43;;;1.13;;
12812;SDS011;6471;50.932;6.934;2023-09-19T15:41:31;1.40;;;0.97;;
12812;SDS011;6471;50.932;6.934;2023-09-19T15:43:57;1.90;;;1.20;;
12812;SDS011;6471;50.932;6.934;2023-09-19T15:46:27;1.73;;;1.30;;
12812;SDS011;6471;50.932;6.934;2023-09-19T15:48:54;3.00;;;1.40;;
12812;SDS011;6471;50.932;6.934;2023-09-19T15:51:21;2.00;;;1.00;;
12812;SDS011;6471;50.932;6.934;2023-09-19T15:53:47;1.23;;;0.90;;
12812;SDS011;6471;50.932;6.934;2023-09-19T15:56:14;1.70;;;1.10;;
12812;SDS011;6471;50.932;6.934;2023-09-19T15:58:43;1.80;;;1.20;;
12812;SDS011;6471;50.932;6.934;2023-09-19T16:01:09;1.90;;;1.47;;
12812;SDS011;6471;50.932;6.934;2023-09-19T16:03:36;2.63;;;1.20;;
12812;SDS011;6471;50.932;6.934;2023-09-19T16:06:07;1.70;;;1.20;;
12812;SDS011;6471;50.932;6.934;2023-09-19T16:08:34;1.20;;;1.10;;
12812;SDS011;6471;50.932;6.934;2023-09-19T16:11:01;2.13;;;1.50;;
12812;SDS011;6471;50.932;6.934;2023-09-19T16:13:28;2.97;;;1.40;;
12812;SDS011;6471;50.932;6.934;2023-09-19T16:15:54;2.33;;;1.30;;